MOL Celebration — C6WW7 — position and weather

sailwx.info

Track history (hours):
 
Tides and Currents Weather Stations Pressure Air Temp Water Temp Dewpoint Dewpoint Depression Visibility Wind Speed Wind Dir Waves Ship Positions

MOL Celebration

Last reported at 2014-Aug-28 23:32 UTC. Time now 2014-Aug-29 08:05 UTC.
Position N 34°40' E 139°30'.

Length 316 m; draft 12 m.

Type: Ship (hazmat cat D). MMSI: 309901000.

Date/timePositionNaut miles runAvg speedWind from/ knotsBaromVisibWave heightAir tempDewpointWater temp
2014-Aug-28 23:32N 34°40' E 139°30'2121.6
2014-Aug-28 22:33N 34°60' E 139°40'1615.9
2014-Aug-28 21:33N 35°15' E 139°46'1212.1
2014-Aug-28 20:33N 35°27' E 139°47'10 9.6
2014-Aug-28 19:33N 35°36' E 139°46'0 0.3
2014-Aug-28 18:25N 35°36' E 139°46'0 0.0
2014-Aug-28 17:31N 35°36' E 139°46'0 0.0
2014-Aug-28 16:31N 35°36' E 139°46'0 0.0
2014-Aug-28 15:25N 35°36' E 139°46'0 0.0
2014-Aug-28 14:28N 35°36' E 139°46'0 0.0
2014-Aug-28 13:28N 35°36' E 139°46'0 0.0
2014-Aug-28 12:31N 35°36' E 139°46'0 0.0
2014-Aug-28 11:31N 35°36' E 139°46'0 0.0
2014-Aug-28 10:31N 35°36' E 139°46'0 0.0
2014-Aug-28 09:31N 35°36' E 139°46'0 0.0
2014-Aug-28 08:28N 35°36' E 139°46'0 0.0
2014-Aug-28 07:31N 35°36' E 139°46'0 0.0
2014-Aug-28 06:31N 35°36' E 139°46'0 0.0
2014-Aug-28 05:31N 35°36' E 139°46'0 0.0
2014-Aug-28 04:31N 35°36' E 139°46'0 0.0
2014-Aug-28 03:28N 35°36' E 139°46'0 0.0
2014-Aug-28 02:31N 35°36' E 139°46'0 0.0
2014-Aug-28 01:31N 35°36' E 139°46'0 0.0
2014-Aug-28 00:31N 35°36' E 139°46'0 0.0
2014-Aug-27 23:31N 35°36' E 139°46'0 0.0
2014-Aug-27 22:31N 35°36' E 139°46'0 0.0
2014-Aug-27 21:31N 35°36' E 139°46'0 0.0
2014-Aug-27 20:31N 35°36' E 139°46'0 0.0
2014-Aug-27 19:31N 35°36' E 139°46'0 0.0
2014-Aug-27 18:28N 35°36' E 139°46'0 0.0
2014-Aug-27 17:31N 35°36' E 139°46'0 0.0
2014-Aug-27 16:31N 35°36' E 139°46'0 0.0
2014-Aug-27 15:31N 35°36' E 139°46'0 0.0
2014-Aug-27 14:31N 35°36' E 139°46'0 0.0
2014-Aug-27 13:31N 35°36' E 139°46'0 0.0
2014-Aug-27 12:31N 35°36' E 139°46'0 0.0
2014-Aug-27 11:31N 35°36' E 139°46'0 0.0
2014-Aug-27 10:31N 35°36' E 139°46'0 0.0
2014-Aug-27 09:31N 35°36' E 139°46'0 0.0
2014-Aug-27 08:31N 35°36' E 139°46'0 0.0
2014-Aug-27 07:31N 35°36' E 139°46'0 0.0
2014-Aug-27 06:28N 35°36' E 139°46'0 0.0
2014-Aug-27 05:31N 35°36' E 139°46'0 0.0
2014-Aug-27 04:32N 35°36' E 139°46'6 6.0
2014-Aug-27 03:33N 35°33' E 139°52'1212.1
2014-Aug-27 02:33N 35°22' E 139°45'1212.0
2014-Aug-27 01:33N 35°10' E 139°46'1514.7
2014-Aug-27 00:33N 34°56' E 139°40'2119.8
2014-Aug-26 23:31N 34°39' E 139°26'4814.0
2014-Aug-26 20:05N 35°00' E 138°34'3 3.7
2014-Aug-26 19:16N 35°02' E 138°31'0 0.1
2014-Aug-26 18:33N 35°02' E 138°31'0 0.0
2014-Aug-26 17:27N 35°02' E 138°31'0 0.0
2014-Aug-26 14:30N 35°02' E 138°31'0 0.0
2014-Aug-26 11:33N 35°02' E 138°31'0 0.0
2014-Aug-26 10:30N 35°02' E 138°31'0 0.0
2014-Aug-26 09:27N 35°02' E 138°31'0 0.0
2014-Aug-26 08:30N 35°02' E 138°31'0 0.0
2014-Aug-26 07:33N 35°02' E 138°31'0 0.0
2014-Aug-26 06:33N 35°02' E 138°31'0 0.0
2014-Aug-26 05:30N 35°02' E 138°31'0 0.0
2014-Aug-26 04:33N 35°02' E 138°31'4 3.1
2014-Aug-26 03:22N 35°01' E 138°35'193 5.2
2014-Aug-24 14:06N 33°51' E 134°57'916.3
2014-Aug-24 13:33N 33°60' E 134°57'1515.3
2014-Aug-24 12:33N 34°15' E 134°58'1413.9
2014-Aug-24 11:33N 34°27' E 135°06'1414.2
2014-Aug-24 10:33N 34°39' E 135°15'1 0.6
2014-Aug-24 09:29N 34°39' E 135°15'0 0.0
2014-Aug-24 08:23N 34°39' E 135°15'0 0.0
2014-Aug-24 07:29N 34°39' E 135°15'0 0.0
2014-Aug-24 06:29N 34°39' E 135°15'0 0.0
2014-Aug-24 05:29N 34°39' E 135°15'0 0.0
2014-Aug-24 04:29N 34°39' E 135°15'0 0.0
2014-Aug-24 03:29N 34°39' E 135°15'0 0.0
2014-Aug-24 02:29N 34°39' E 135°15'0 0.0
2014-Aug-24 01:23N 34°39' E 135°15'0 0.0
2014-Aug-24 00:29N 34°39' E 135°15'0 0.0
2014-Aug-23 23:29N 34°39' E 135°15'0 0.0
2014-Aug-23 22:29N 34°39' E 135°15'0 0.0
2014-Aug-23 21:28N 34°39' E 135°15'0 0.0
2014-Aug-23 20:29N 34°39' E 135°15'0 0.0
2014-Aug-23 19:28N 34°39' E 135°15'  
2014-Aug-21 11:33N 25°02' E 120°04'2222.3
2014-Aug-21 10:33N 24°49' E 119°45'2322.6
2014-Aug-21 09:34N 24°33' E 119°28'2222.3
2014-Aug-21 08:33N 24°19' E 119°08'2323.2
2014-Aug-21 07:33N 24°05' E 118°48'2221.9
2014-Aug-21 06:33N 23°52' E 118°29'2221.9
2014-Aug-21 05:33N 23°39' E 118°10'23716.9
2014-Aug-20 15:33N 22°20' E 114°07'0 0.0
2014-Aug-19 16:32N 22°20' E 114°07'9 6.5
2014-Aug-19 15:07N 22°11' E 114°12'  
Track history (hours):
 
Tides and Currents Weather Stations Pressure Air Temp Water Temp Dewpoint Dewpoint Depression Visibility Wind Speed Wind Dir Waves Ship Positions

MOL Celebration

Last reported at 2014-Aug-28 23:32 UTC. Time now 2014-Aug-29 08:05 UTC.
Position N 34°40' E 139°30'.

Length 316 m; draft 12 m.

Type: Ship (hazmat cat D). MMSI: 309901000.

Date/timePositionNaut miles runAvg speedWind from/ knotsBaromVisibWave heightAir tempDewpointWater temp
2014-Aug-28 23:32N 34°40' E 139°30'2121.6
2014-Aug-28 22:33N 34°60' E 139°40'1615.9
2014-Aug-28 21:33N 35°15' E 139°46'1212.1
2014-Aug-28 20:33N 35°27' E 139°47'10 9.6
2014-Aug-28 19:33N 35°36' E 139°46'0 0.3
2014-Aug-28 18:25N 35°36' E 139°46'0 0.0
2014-Aug-28 17:31N 35°36' E 139°46'0 0.0
2014-Aug-28 16:31N 35°36' E 139°46'0 0.0
2014-Aug-28 15:25N 35°36' E 139°46'0 0.0
2014-Aug-28 14:28N 35°36' E 139°46'0 0.0
2014-Aug-28 13:28N 35°36' E 139°46'0 0.0
2014-Aug-28 12:31N 35°36' E 139°46'0 0.0
2014-Aug-28 11:31N 35°36' E 139°46'0 0.0
2014-Aug-28 10:31N 35°36' E 139°46'0 0.0
2014-Aug-28 09:31N 35°36' E 139°46'0 0.0
2014-Aug-28 08:28N 35°36' E 139°46'0 0.0
2014-Aug-28 07:31N 35°36' E 139°46'0 0.0
2014-Aug-28 06:31N 35°36' E 139°46'0 0.0
2014-Aug-28 05:31N 35°36' E 139°46'0 0.0
2014-Aug-28 04:31N 35°36' E 139°46'0 0.0
2014-Aug-28 03:28N 35°36' E 139°46'0 0.0
2014-Aug-28 02:31N 35°36' E 139°46'0 0.0
2014-Aug-28 01:31N 35°36' E 139°46'0 0.0
2014-Aug-28 00:31N 35°36' E 139°46'0 0.0
2014-Aug-27 23:31N 35°36' E 139°46'0 0.0
2014-Aug-27 22:31N 35°36' E 139°46'0 0.0
2014-Aug-27 21:31N 35°36' E 139°46'0 0.0
2014-Aug-27 20:31N 35°36' E 139°46'0 0.0
2014-Aug-27 19:31N 35°36' E 139°46'0 0.0
2014-Aug-27 18:28N 35°36' E 139°46'0 0.0
2014-Aug-27 17:31N 35°36' E 139°46'0 0.0
2014-Aug-27 16:31N 35°36' E 139°46'0 0.0
2014-Aug-27 15:31N 35°36' E 139°46'0 0.0
2014-Aug-27 14:31N 35°36' E 139°46'0 0.0
2014-Aug-27 13:31N 35°36' E 139°46'0 0.0
2014-Aug-27 12:31N 35°36' E 139°46'0 0.0
2014-Aug-27 11:31N 35°36' E 139°46'0 0.0
2014-Aug-27 10:31N 35°36' E 139°46'0 0.0
2014-Aug-27 09:31N 35°36' E 139°46'0 0.0
2014-Aug-27 08:31N 35°36' E 139°46'0 0.0
2014-Aug-27 07:31N 35°36' E 139°46'0 0.0
2014-Aug-27 06:28N 35°36' E 139°46'0 0.0
2014-Aug-27 05:31N 35°36' E 139°46'0 0.0
2014-Aug-27 04:32N 35°36' E 139°46'6 6.0
2014-Aug-27 03:33N 35°33' E 139°52'1212.1
2014-Aug-27 02:33N 35°22' E 139°45'1212.0
2014-Aug-27 01:33N 35°10' E 139°46'1514.7
2014-Aug-27 00:33N 34°56' E 139°40'2119.8
2014-Aug-26 23:31N 34°39' E 139°26'4814.0
2014-Aug-26 20:05N 35°00' E 138°34'3 3.7
2014-Aug-26 19:16N 35°02' E 138°31'0 0.1
2014-Aug-26 18:33N 35°02' E 138°31'0 0.0
2014-Aug-26 17:27N 35°02' E 138°31'0 0.0
2014-Aug-26 14:30N 35°02' E 138°31'0 0.0
2014-Aug-26 11:33N 35°02' E 138°31'0 0.0
2014-Aug-26 10:30N 35°02' E 138°31'0 0.0
2014-Aug-26 09:27N 35°02' E 138°31'0 0.0
2014-Aug-26 08:30N 35°02' E 138°31'0 0.0
2014-Aug-26 07:33N 35°02' E 138°31'0 0.0
2014-Aug-26 06:33N 35°02' E 138°31'0 0.0
2014-Aug-26 05:30N 35°02' E 138°31'0 0.0
2014-Aug-26 04:33N 35°02' E 138°31'4 3.1
2014-Aug-26 03:22N 35°01' E 138°35'193 5.2
2014-Aug-24 14:06N 33°51' E 134°57'916.3
2014-Aug-24 13:33N 33°60' E 134°57'1515.3
2014-Aug-24 12:33N 34°15' E 134°58'1413.9
2014-Aug-24 11:33N 34°27' E 135°06'1414.2
2014-Aug-24 10:33N 34°39' E 135°15'1 0.6
2014-Aug-24 09:29N 34°39' E 135°15'0 0.0
2014-Aug-24 08:23N 34°39' E 135°15'0 0.0
2014-Aug-24 07:29N 34°39' E 135°15'0 0.0
2014-Aug-24 06:29N 34°39' E 135°15'0 0.0
2014-Aug-24 05:29N 34°39' E 135°15'0 0.0
2014-Aug-24 04:29N 34°39' E 135°15'0 0.0
2014-Aug-24 03:29N 34°39' E 135°15'0 0.0
2014-Aug-24 02:29N 34°39' E 135°15'0 0.0
2014-Aug-24 01:23N 34°39' E 135°15'0 0.0
2014-Aug-24 00:29N 34°39' E 135°15'0 0.0
2014-Aug-23 23:29N 34°39' E 135°15'0 0.0
2014-Aug-23 22:29N 34°39' E 135°15'0 0.0
2014-Aug-23 21:28N 34°39' E 135°15'0 0.0
2014-Aug-23 20:29N 34°39' E 135°15'0 0.0
2014-Aug-23 19:28N 34°39' E 135°15'  
2014-Aug-21 11:33N 25°02' E 120°04'2222.3
2014-Aug-21 10:33N 24°49' E 119°45'2322.6
2014-Aug-21 09:34N 24°33' E 119°28'2222.3
2014-Aug-21 08:33N 24°19' E 119°08'2323.2
2014-Aug-21 07:33N 24°05' E 118°48'2221.9
2014-Aug-21 06:33N 23°52' E 118°29'2221.9
2014-Aug-21 05:33N 23°39' E 118°10'23716.9
2014-Aug-20 15:33N 22°20' E 114°07'0 0.0
2014-Aug-19 16:32N 22°20' E 114°07'9 6.5
2014-Aug-19 15:07N 22°11' E 114°12'  

Dump ship's entire track history